sensor_id;sensor_type;location;lat;lon;timestamp;P1;durP1;ratioP1;P2;durP2;ratioP2
13202;SDS011;6666;51.626;7.530;2023-02-12T00:01:18;46.25;;;20.92;;
13202;SDS011;6666;51.626;7.530;2023-02-12T00:03:46;47.00;;;22.20;;
13202;SDS011;6666;51.626;7.530;2023-02-12T00:06:15;45.50;;;22.45;;
13202;SDS011;6666;51.626;7.530;2023-02-12T00:08:44;45.47;;;22.23;;
13202;SDS011;6666;51.626;7.530;2023-02-12T00:11:15;45.80;;;21.38;;
13202;SDS011;6666;51.626;7.530;2023-02-12T00:13:47;45.30;;;20.95;;
13202;SDS011;6666;51.626;7.530;2023-02-12T00:16:17;41.85;;;21.05;;
13202;SDS011;6666;51.626;7.530;2023-02-12T00:18:46;47.13;;;22.00;;
13202;SDS011;6666;51.626;7.530;2023-02-12T00:21:18;50.28;;;21.17;;
13202;SDS011;6666;51.626;7.530;2023-02-12T00:23:46;44.88;;;21.75;;
13202;SDS011;6666;51.626;7.530;2023-02-12T00:26:15;45.55;;;21.52;;
13202;SDS011;6666;51.626;7.530;2023-02-12T00:28:49;46.70;;;21.80;;
13202;SDS011;6666;51.626;7.530;2023-02-12T00:31:18;44.60;;;20.50;;
13202;SDS011;6666;51.626;7.530;2023-02-12T00:33:48;40.20;;;20.55;;
13202;SDS011;6666;51.626;7.530;2023-02-12T00:36:18;42.60;;;20.67;;
13202;SDS011;6666;51.626;7.530;2023-02-12T00:38:49;42.35;;;20.58;;
13202;SDS011;6666;51.626;7.530;2023-02-12T00:41:18;45.65;;;20.88;;
13202;SDS011;6666;51.626;7.530;2023-02-12T00:43:49;52.50;;;22.27;;
13202;SDS011;6666;51.626;7.530;2023-02-12T00:46:17;47.55;;;20.90;;
13202;SDS011;6666;51.626;7.530;2023-02-12T00:48:46;44.17;;;20.80;;
13202;SDS011;6666;51.626;7.530;2023-02-12T00:51:18;43.00;;;20.52;;
13202;SDS011;6666;51.626;7.530;2023-02-12T00:53:46;46.13;;;20.73;;
13202;SDS011;6666;51.626;7.530;2023-02-12T00:56:14;40.15;;;19.90;;
13202;SDS011;6666;51.626;7.530;2023-02-12T00:58:47;46.63;;;20.15;;
13202;SDS011;6666;51.626;7.530;2023-02-12T01:01:16;43.90;;;20.95;;
13202;SDS011;6666;51.626;7.530;2023-02-12T01:03:45;49.85;;;20.48;;
13202;SDS011;6666;51.626;7.530;2023-02-12T01:06:13;43.30;;;20.40;;
13202;SDS011;6666;51.626;7.530;2023-02-12T01:08:41;42.22;;;19.70;;
13202;SDS011;6666;51.626;7.530;2023-02-12T01:11:10;43.97;;;20.98;;
13202;SDS011;6666;51.626;7.530;2023-02-12T01:13:40;47.83;;;20.00;;
13202;SDS011;6666;51.626;7.530;2023-02-12T01:16:12;40.13;;;18.38;;
13202;SDS011;6666;51.626;7.530;2023-02-12T01:18:42;39.42;;;18.98;;
13202;SDS011;6666;51.626;7.530;2023-02-12T01:21:12;43.13;;;20.73;;
13202;SDS011;6666;51.626;7.530;2023-02-12T01:23:42;41.50;;;20.02;;
13202;SDS011;6666;51.626;7.530;2023-02-12T01:26:11;41.58;;;20.73;;
13202;SDS011;6666;51.626;7.530;2023-02-12T01:28:41;39.80;;;18.92;;
13202;SDS011;6666;51.626;7.530;2023-02-12T01:31:12;45.03;;;20.60;;
13202;SDS011;6666;51.626;7.530;2023-02-12T01:33:42;48.38;;;21.48;;
13202;SDS011;6666;51.626;7.530;2023-02-12T01:36:13;44.38;;;19.67;;
13202;SDS011;6666;51.626;7.530;2023-02-12T01:38:42;40.53;;;19.55;;
13202;SDS011;6666;51.626;7.530;2023-02-12T01:41:12;43.77;;;19.80;;
13202;SDS011;6666;51.626;7.530;2023-02-12T01:43:41;42.00;;;20.67;;
13202;SDS011;6666;51.626;7.530;2023-02-12T01:46:13;43.85;;;20.40;;
13202;SDS011;6666;51.626;7.530;2023-02-12T01:48:42;43.33;;;20.27;;
13202;SDS011;6666;51.626;7.530;2023-02-12T01:51:13;39.60;;;19.90;;
13202;SDS011;6666;51.626;7.530;2023-02-12T01:53:48;38.77;;;18.10;;
13202;SDS011;6666;51.626;7.530;2023-02-12T01:56:19;40.37;;;18.67;;
13202;SDS011;6666;51.626;7.530;2023-02-12T01:58:49;41.35;;;19.20;;
13202;SDS011;6666;51.626;7.530;2023-02-12T02:01:22;42.70;;;18.70;;
13202;SDS011;6666;51.626;7.530;2023-02-12T02:03:56;40.70;;;19.25;;
13202;SDS011;6666;51.626;7.530;2023-02-12T02:06:29;42.80;;;18.88;;
13202;SDS011;6666;51.626;7.530;2023-02-12T02:09:00;40.80;;;19.25;;
13202;SDS011;6666;51.626;7.530;2023-02-12T02:11:30;40.80;;;19.20;;
13202;SDS011;6666;51.626;7.530;2023-02-12T02:14:17;36.33;;;18.67;;
13202;SDS011;6666;51.626;7.530;2023-02-12T02:17:08;41.83;;;19.35;;
13202;SDS011;6666;51.626;7.530;2023-02-12T02:20:00;40.03;;;19.23;;
13202;SDS011;6666;51.626;7.530;2023-02-12T02:23:03;36.63;;;18.02;;
13202;SDS011;6666;51.626;7.530;2023-02-12T02:25:55;40.15;;;18.38;;
13202;SDS011;6666;51.626;7.530;2023-02-12T02:28:43;37.72;;;18.08;;
13202;SDS011;6666;51.626;7.530;2023-02-12T02:31:38;35.80;;;18.95;;
13202;SDS011;6666;51.626;7.530;2023-02-12T02:34:10;36.13;;;18.23;;
13202;SDS011;6666;51.626;7.530;2023-02-12T02:36:48;37.28;;;17.70;;
13202;SDS011;6666;51.626;7.530;2023-02-12T02:39:27;39.20;;;18.00;;
13202;SDS011;6666;51.626;7.530;2023-02-12T02:42:03;36.63;;;17.40;;
13202;SDS011;6666;51.626;7.530;2023-02-12T02:44:37;34.40;;;17.83;;
13202;SDS011;6666;51.626;7.530;2023-02-12T02:47:12;34.22;;;16.90;;
13202;SDS011;6666;51.626;7.530;2023-02-12T02:49:43;36.92;;;18.02;;
13202;SDS011;6666;51.626;7.530;2023-02-12T02:52:13;38.67;;;17.98;;
13202;SDS011;6666;51.626;7.530;2023-02-12T02:54:46;36.47;;;16.95;;
13202;SDS011;6666;51.626;7.530;2023-02-12T02:57:17;35.03;;;17.35;;
13202;SDS011;6666;51.626;7.530;2023-02-12T02:59:51;33.85;;;16.65;;
13202;SDS011;6666;51.626;7.530;2023-02-12T03:02:24;39.53;;;18.03;;
13202;SDS011;6666;51.626;7.530;2023-02-12T03:04:57;37.15;;;17.27;;
13202;SDS011;6666;51.626;7.530;2023-02-12T03:07:30;36.53;;;16.77;;
13202;SDS011;6666;51.626;7.530;2023-02-12T03:10:03;40.13;;;17.85;;
13202;SDS011;6666;51.626;7.530;2023-02-12T03:12:35;41.75;;;17.52;;
13202;SDS011;6666;51.626;7.530;2023-02-12T03:15:08;36.08;;;17.27;;
13202;SDS011;6666;51.626;7.530;2023-02-12T03:17:42;35.80;;;17.33;;
13202;SDS011;6666;51.626;7.530;2023-02-12T03:20:14;39.27;;;18.20;;
13202;SDS011;6666;51.626;7.530;2023-02-12T03:22:46;35.42;;;17.23;;
13202;SDS011;6666;51.626;7.530;2023-02-12T03:25:19;35.60;;;17.50;;
13202;SDS011;6666;51.626;7.530;2023-02-12T03:27:53;38.83;;;17.23;;
13202;SDS011;6666;51.626;7.530;2023-02-12T03:30:37;35.50;;;16.83;;
13202;SDS011;6666;51.626;7.530;2023-02-12T03:33:15;34.78;;;16.52;;
13202;SDS011;6666;51.626;7.530;2023-02-12T03:35:51;35.90;;;16.45;;
13202;SDS011;6666;51.626;7.530;2023-02-12T03:38:29;35.15;;;17.33;;
13202;SDS011;6666;51.626;7.530;2023-02-12T03:41:02;34.58;;;16.90;;
13202;SDS011;6666;51.626;7.530;2023-02-12T03:43:38;34.10;;;16.25;;
13202;SDS011;6666;51.626;7.530;2023-02-12T03:46:17;33.08;;;16.90;;
13202;SDS011;6666;51.626;7.530;2023-02-12T03:48:54;32.33;;;16.37;;
13202;SDS011;6666;51.626;7.530;2023-02-12T03:51:27;37.80;;;17.17;;
13202;SDS011;6666;51.626;7.530;2023-02-12T03:54:00;35.20;;;16.52;;
13202;SDS011;6666;51.626;7.530;2023-02-12T03:56:32;33.23;;;16.20;;
13202;SDS011;6666;51.626;7.530;2023-02-12T03:59:04;33.63;;;16.38;;
13202;SDS011;6666;51.626;7.530;2023-02-12T04:01:32;36.38;;;16.33;;
13202;SDS011;6666;51.626;7.530;2023-02-12T04:04:05;30.95;;;15.85;;
13202;SDS011;6666;51.626;7.530;2023-02-12T04:06:34;36.25;;;16.70;;
13202;SDS011;6666;51.626;7.530;2023-02-12T04:09:03;34.90;;;15.93;;
13202;SDS011;6666;51.626;7.530;2023-02-12T04:11:37;35.57;;;16.90;;
13202;SDS011;6666;51.626;7.530;2023-02-12T04:14:16;33.10;;;16.25;;
13202;SDS011;6666;51.626;7.530;2023-02-12T04:16:50;32.53;;;16.38;;
13202;SDS011;6666;51.626;7.530;2023-02-12T04:19:29;32.70;;;15.48;;
13202;SDS011;6666;51.626;7.530;2023-02-12T04:22:06;31.30;;;16.02;;
13202;SDS011;6666;51.626;7.530;2023-02-12T04:24:48;34.28;;;15.20;;
13202;SDS011;6666;51.626;7.530;2023-02-12T04:27:24;33.90;;;16.00;;
13202;SDS011;6666;51.626;7.530;2023-02-12T04:29:57;34.33;;;15.13;;
13202;SDS011;6666;51.626;7.530;2023-02-12T04:32:34;35.03;;;16.50;;
13202;SDS011;6666;51.626;7.530;2023-02-12T04:35:10;38.33;;;15.80;;
13202;SDS011;6666;51.626;7.530;2023-02-12T04:37:47;37.00;;;17.02;;
13202;SDS011;6666;51.626;7.530;2023-02-12T04:40:18;34.15;;;17.08;;
13202;SDS011;6666;51.626;7.530;2023-02-12T04:42:49;34.78;;;15.85;;
13202;SDS011;6666;51.626;7.530;2023-02-12T04:45:20;32.35;;;16.50;;
13202;SDS011;6666;51.626;7.530;2023-02-12T04:47:50;41.50;;;17.95;;
13202;SDS011;6666;51.626;7.530;2023-02-12T04:50:20;36.28;;;17.08;;
13202;SDS011;6666;51.626;7.530;2023-02-12T04:52:49;37.88;;;17.10;;
13202;SDS011;6666;51.626;7.530;2023-02-12T04:55:17;39.15;;;17.30;;
13202;SDS011;6666;51.626;7.530;2023-02-12T04:57:46;31.08;;;15.50;;
13202;SDS011;6666;51.626;7.530;2023-02-12T05:00:15;31.63;;;15.45;;
13202;SDS011;6666;51.626;7.530;2023-02-12T05:02:43;35.67;;;16.33;;
13202;SDS011;6666;51.626;7.530;2023-02-12T05:05:12;34.38;;;15.77;;
13202;SDS011;6666;51.626;7.530;2023-02-12T05:07:42;33.38;;;16.67;;
13202;SDS011;6666;51.626;7.530;2023-02-12T05:10:10;34.88;;;16.98;;
13202;SDS011;6666;51.626;7.530;2023-02-12T05:12:39;38.10;;;17.00;;
13202;SDS011;6666;51.626;7.530;2023-02-12T05:15:08;32.00;;;16.77;;
13202;SDS011;6666;51.626;7.530;2023-02-12T05:17:36;34.88;;;16.23;;
13202;SDS011;6666;51.626;7.530;2023-02-12T05:20:05;35.88;;;17.40;;
13202;SDS011;6666;51.626;7.530;2023-02-12T05:22:34;36.38;;;16.83;;
13202;SDS011;6666;51.626;7.530;2023-02-12T05:25:04;33.80;;;15.90;;
13202;SDS011;6666;51.626;7.530;2023-02-12T05:27:33;36.78;;;16.85;;
13202;SDS011;6666;51.626;7.530;2023-02-12T05:30:01;36.03;;;17.70;;
13202;SDS011;6666;51.626;7.530;2023-02-12T05:32:30;38.40;;;17.90;;
13202;SDS011;6666;51.626;7.530;2023-02-12T05:34:59;35.65;;;17.17;;
13202;SDS011;6666;51.626;7.530;2023-02-12T05:37:27;38.97;;;18.17;;
13202;SDS011;6666;51.626;7.530;2023-02-12T05:39:56;40.08;;;17.65;;
13202;SDS011;6666;51.626;7.530;2023-02-12T05:42:27;35.17;;;17.50;;
13202;SDS011;6666;51.626;7.530;2023-02-12T05:44:56;37.08;;;18.10;;
13202;SDS011;6666;51.626;7.530;2023-02-12T05:47:24;36.55;;;16.23;;
13202;SDS011;6666;51.626;7.530;2023-02-12T05:49:52;35.55;;;17.67;;
13202;SDS011;6666;51.626;7.530;2023-02-12T05:52:20;38.72;;;18.50;;
13202;SDS011;6666;51.626;7.530;2023-02-12T05:54:49;33.67;;;17.48;;
13202;SDS011;6666;51.626;7.530;2023-02-12T05:57:17;39.75;;;16.88;;
13202;SDS011;6666;51.626;7.530;2023-02-12T05:59:47;38.45;;;17.50;;
13202;SDS011;6666;51.626;7.530;2023-02-12T06:02:15;36.58;;;17.65;;
13202;SDS011;6666;51.626;7.530;2023-02-12T06:04:43;38.25;;;17.25;;
13202;SDS011;6666;51.626;7.530;2023-02-12T06:07:14;36.77;;;17.37;;
13202;SDS011;6666;51.626;7.530;2023-02-12T06:09:42;37.03;;;16.73;;
13202;SDS011;6666;51.626;7.530;2023-02-12T06:12:10;32.30;;;16.40;;
13202;SDS011;6666;51.626;7.530;2023-02-12T06:14:39;31.27;;;16.03;;
13202;SDS011;6666;51.626;7.530;2023-02-12T06:17:09;34.55;;;16.02;;
13202;SDS011;6666;51.626;7.530;2023-02-12T06:19:37;34.63;;;17.27;;
13202;SDS011;6666;51.626;7.530;2023-02-12T06:22:06;34.28;;;16.85;;
13202;SDS011;6666;51.626;7.530;2023-02-12T06:24:34;35.33;;;16.80;;
13202;SDS011;6666;51.626;7.530;2023-02-12T06:27:03;44.78;;;17.73;;
13202;SDS011;6666;51.626;7.530;2023-02-12T06:29:31;35.45;;;16.77;;
13202;SDS011;6666;51.626;7.530;2023-02-12T06:31:59;33.63;;;15.90;;
13202;SDS011;6666;51.626;7.530;2023-02-12T06:34:29;36.90;;;17.73;;
13202;SDS011;6666;51.626;7.530;2023-02-12T06:36:57;37.15;;;16.60;;
13202;SDS011;6666;51.626;7.530;2023-02-12T06:39:25;32.40;;;16.42;;
13202;SDS011;6666;51.626;7.530;2023-02-12T06:41:53;41.05;;;17.20;;
13202;SDS011;6666;51.626;7.530;2023-02-12T06:44:22;37.58;;;16.38;;
13202;SDS011;6666;51.626;7.530;2023-02-12T06:46:50;33.60;;;16.47;;
13202;SDS011;6666;51.626;7.530;2023-02-12T06:49:19;35.10;;;16.38;;
13202;SDS011;6666;51.626;7.530;2023-02-12T06:51:48;39.22;;;17.10;;
13202;SDS011;6666;51.626;7.530;2023-02-12T06:54:16;31.05;;;16.40;;
13202;SDS011;6666;51.626;7.530;2023-02-12T06:56:45;35.80;;;16.58;;
13202;SDS011;6666;51.626;7.530;2023-02-12T06:59:14;32.00;;;16.40;;
13202;SDS011;6666;51.626;7.530;2023-02-12T07:01:44;37.38;;;16.75;;
13202;SDS011;6666;51.626;7.530;2023-02-12T07:04:13;37.83;;;16.65;;
13202;SDS011;6666;51.626;7.530;2023-02-12T07:06:41;39.38;;;17.25;;
13202;SDS011;6666;51.626;7.530;2023-02-12T07:09:11;36.00;;;17.17;;
13202;SDS011;6666;51.626;7.530;2023-02-12T07:11:39;33.45;;;16.88;;
13202;SDS011;6666;51.626;7.530;2023-02-12T07:14:11;37.63;;;17.30;;
13202;SDS011;6666;51.626;7.530;2023-02-12T07:16:41;38.40;;;17.92;;
13202;SDS011;6666;51.626;7.530;2023-02-12T07:19:10;35.50;;;16.55;;
13202;SDS011;6666;51.626;7.530;2023-02-12T07:21:39;32.78;;;16.20;;
13202;SDS011;6666;51.626;7.530;2023-02-12T07:24:08;35.90;;;16.70;;
13202;SDS011;6666;51.626;7.530;2023-02-12T07:26:39;34.55;;;15.50;;
13202;SDS011;6666;51.626;7.530;2023-02-12T07:29:08;37.83;;;16.95;;
13202;SDS011;6666;51.626;7.530;2023-02-12T07:31:38;33.58;;;16.67;;
13202;SDS011;6666;51.626;7.530;2023-02-12T07:34:06;36.42;;;17.10;;
13202;SDS011;6666;51.626;7.530;2023-02-12T07:36:37;36.35;;;16.92;;
13202;SDS011;6666;51.626;7.530;2023-02-12T07:39:05;39.08;;;18.13;;
13202;SDS011;6666;51.626;7.530;2023-02-12T07:41:35;31.48;;;16.20;;
13202;SDS011;6666;51.626;7.530;2023-02-12T07:44:04;34.28;;;16.92;;
13202;SDS011;6666;51.626;7.530;2023-02-12T07:46:34;33.80;;;17.33;;
13202;SDS011;6666;51.626;7.530;2023-02-12T07:49:04;33.05;;;16.85;;
13202;SDS011;6666;51.626;7.530;2023-02-12T07:51:33;36.00;;;16.77;;
13202;SDS011;6666;51.626;7.530;2023-02-12T07:54:03;34.05;;;16.42;;
13202;SDS011;6666;51.626;7.530;2023-02-12T07:56:32;32.45;;;17.00;;
13202;SDS011;6666;51.626;7.530;2023-02-12T07:59:04;34.28;;;16.48;;
13202;SDS011;6666;51.626;7.530;2023-02-12T08:01:34;36.00;;;17.73;;
13202;SDS011;6666;51.626;7.530;2023-02-12T08:04:04;30.75;;;16.20;;
13202;SDS011;6666;51.626;7.530;2023-02-12T08:06:37;36.65;;;16.88;;
13202;SDS011;6666;51.626;7.530;2023-02-12T08:09:07;34.75;;;16.58;;
13202;SDS011;6666;51.626;7.530;2023-02-12T08:11:39;34.90;;;17.60;;
13202;SDS011;6666;51.626;7.530;2023-02-12T08:14:10;38.00;;;17.88;;
13202;SDS011;6666;51.626;7.530;2023-02-12T08:16:39;34.90;;;17.70;;
13202;SDS011;6666;51.626;7.530;2023-02-12T08:19:09;34.30;;;17.67;;
13202;SDS011;6666;51.626;7.530;2023-02-12T08:21:49;35.50;;;16.80;;
13202;SDS011;6666;51.626;7.530;2023-02-12T08:24:18;35.95;;;17.98;;
13202;SDS011;6666;51.626;7.530;2023-02-12T08:26:49;34.75;;;17.10;;
13202;SDS011;6666;51.626;7.530;2023-02-12T08:29:18;37.67;;;17.30;;
13202;SDS011;6666;51.626;7.530;2023-02-12T08:31:48;37.63;;;17.48;;
13202;SDS011;6666;51.626;7.530;2023-02-12T08:34:17;35.90;;;18.42;;
13202;SDS011;6666;51.626;7.530;2023-02-12T08:36:46;37.37;;;17.30;;
13202;SDS011;6666;51.626;7.530;2023-02-12T08:39:16;36.35;;;17.92;;
13202;SDS011;6666;51.626;7.530;2023-02-12T08:41:44;32.20;;;17.02;;
13202;SDS011;6666;51.626;7.530;2023-02-12T08:44:15;36.83;;;17.05;;
13202;SDS011;6666;51.626;7.530;2023-02-12T08:46:44;33.97;;;16.75;;
13202;SDS011;6666;51.626;7.530;2023-02-12T08:49:15;36.53;;;17.07;;
13202;SDS011;6666;51.626;7.530;2023-02-12T08:51:45;36.08;;;17.63;;
13202;SDS011;6666;51.626;7.530;2023-02-12T08:54:15;34.83;;;17.23;;
13202;SDS011;6666;51.626;7.530;2023-02-12T08:56:45;35.07;;;16.10;;
13202;SDS011;6666;51.626;7.530;2023-02-12T08:59:15;31.73;;;15.83;;
13202;SDS011;6666;51.626;7.530;2023-02-12T09:01:44;31.23;;;15.38;;
13202;SDS011;6666;51.626;7.530;2023-02-12T09:04:13;30.25;;;15.20;;
13202;SDS011;6666;51.626;7.530;2023-02-12T09:06:44;31.70;;;15.65;;
13202;SDS011;6666;51.626;7.530;2023-02-12T09:09:12;27.60;;;14.77;;
13202;SDS011;6666;51.626;7.530;2023-02-12T09:11:41;29.87;;;14.67;;
13202;SDS011;6666;51.626;7.530;2023-02-12T09:14:11;28.05;;;14.32;;
13202;SDS011;6666;51.626;7.530;2023-02-12T09:16:43;31.08;;;15.13;;
13202;SDS011;6666;51.626;7.530;2023-02-12T09:19:12;32.90;;;16.40;;
13202;SDS011;6666;51.626;7.530;2023-02-12T09:21:41;30.38;;;15.07;;
13202;SDS011;6666;51.626;7.530;2023-02-12T09:24:09;29.80;;;16.20;;
13202;SDS011;6666;51.626;7.530;2023-02-12T09:26:38;31.30;;;15.32;;
13202;SDS011;6666;51.626;7.530;2023-02-12T09:29:06;30.00;;;15.70;;
13202;SDS011;6666;51.626;7.530;2023-02-12T09:31:35;32.33;;;15.87;;
13202;SDS011;6666;51.626;7.530;2023-02-12T09:34:05;33.33;;;16.23;;
13202;SDS011;6666;51.626;7.530;2023-02-12T09:36:33;32.57;;;16.07;;
13202;SDS011;6666;51.626;7.530;2023-02-12T09:39:02;33.05;;;17.00;;
13202;SDS011;6666;51.626;7.530;2023-02-12T09:41:44;30.37;;;14.87;;
13202;SDS011;6666;51.626;7.530;2023-02-12T09:44:32;29.08;;;15.20;;
13202;SDS011;6666;51.626;7.530;2023-02-12T09:47:11;28.02;;;14.95;;
13202;SDS011;6666;51.626;7.530;2023-02-12T09:49:48;29.20;;;16.17;;
13202;SDS011;6666;51.626;7.530;2023-02-12T09:52:25;28.55;;;15.82;;
13202;SDS011;6666;51.626;7.530;2023-02-12T09:54:55;29.33;;;14.57;;
13202;SDS011;6666;51.626;7.530;2023-02-12T09:57:25;27.98;;;15.30;;
13202;SDS011;6666;51.626;7.530;2023-02-12T09:59:57;31.30;;;16.25;;
13202;SDS011;6666;51.626;7.530;2023-02-12T10:02:30;29.13;;;15.88;;
13202;SDS011;6666;51.626;7.530;2023-02-12T10:05:02;26.90;;;14.87;;
13202;SDS011;6666;51.626;7.530;2023-02-12T10:07:34;29.55;;;14.63;;
13202;SDS011;6666;51.626;7.530;2023-02-12T10:10:20;27.83;;;14.43;;
13202;SDS011;6666;51.626;7.530;2023-02-12T10:12:59;31.48;;;14.25;;
13202;SDS011;6666;51.626;7.530;2023-02-12T10:15:36;27.20;;;15.00;;
13202;SDS011;6666;51.626;7.530;2023-02-12T10:18:19;30.57;;;13.50;;
13202;SDS011;6666;51.626;7.530;2023-02-12T10:21:10;29.47;;;14.97;;
13202;SDS011;6666;51.626;7.530;2023-02-12T10:23:53;26.67;;;13.90;;
13202;SDS011;6666;51.626;7.530;2023-02-12T10:26:32;26.90;;;14.00;;
13202;SDS011;6666;51.626;7.530;2023-02-12T10:29:08;25.73;;;14.18;;
13202;SDS011;6666;51.626;7.530;2023-02-12T10:31:41;26.98;;;13.75;;
13202;SDS011;6666;51.626;7.530;2023-02-12T10:34:14;23.83;;;13.20;;
13202;SDS011;6666;51.626;7.530;2023-02-12T10:36:47;23.40;;;12.87;;
13202;SDS011;6666;51.626;7.530;2023-02-12T10:39:20;25.60;;;13.27;;
13202;SDS011;6666;51.626;7.530;2023-02-12T10:41:52;24.17;;;12.90;;
13202;SDS011;6666;51.626;7.530;2023-02-12T10:44:24;22.10;;;12.70;;
13202;SDS011;6666;51.626;7.530;2023-02-12T10:46:53;23.98;;;12.48;;
13202;SDS011;6666;51.626;7.530;2023-02-12T10:49:22;22.23;;;12.50;;
13202;SDS011;6666;51.626;7.530;2023-02-12T10:51:59;24.75;;;12.60;;
13202;SDS011;6666;51.626;7.530;2023-02-12T10:54:34;24.90;;;12.45;;
13202;SDS011;6666;51.626;7.530;2023-02-12T10:57:14;21.10;;;11.85;;
13202;SDS011;6666;51.626;7.530;2023-02-12T10:59:46;22.40;;;12.65;;
13202;SDS011;6666;51.626;7.530;2023-02-12T11:02:20;23.33;;;12.30;;
13202;SDS011;6666;51.626;7.530;2023-02-12T11:04:50;25.23;;;13.00;;
13202;SDS011;6666;51.626;7.530;2023-02-12T11:07:22;21.65;;;11.80;;
13202;SDS011;6666;51.626;7.530;2023-02-12T11:09:51;22.88;;;11.93;;
13202;SDS011;6666;51.626;7.530;2023-02-12T11:12:24;22.80;;;11.98;;
13202;SDS011;6666;51.626;7.530;2023-02-12T11:14:57;23.17;;;12.45;;
13202;SDS011;6666;51.626;7.530;2023-02-12T11:17:31;23.63;;;11.63;;
13202;SDS011;6666;51.626;7.530;2023-02-12T11:20:03;20.42;;;12.57;;
13202;SDS011;6666;51.626;7.530;2023-02-12T11:22:37;21.95;;;12.30;;
13202;SDS011;6666;51.626;7.530;2023-02-12T11:25:20;22.52;;;12.20;;
13202;SDS011;6666;51.626;7.530;2023-02-12T11:28:00;22.05;;;12.27;;
13202;SDS011;6666;51.626;7.530;2023-02-12T11:30:47;19.70;;;11.40;;
13202;SDS011;6666;51.626;7.530;2023-02-12T11:33:21;20.97;;;11.00;;
13202;SDS011;6666;51.626;7.530;2023-02-12T11:35:55;18.73;;;10.35;;
13202;SDS011;6666;51.626;7.530;2023-02-12T11:38:30;19.15;;;10.77;;
13202;SDS011;6666;51.626;7.530;2023-02-12T11:41:05;19.20;;;10.85;;
13202;SDS011;6666;51.626;7.530;2023-02-12T11:43:41;19.60;;;10.85;;
13202;SDS011;6666;51.626;7.530;2023-02-12T11:46:10;21.60;;;10.40;;
13202;SDS011;6666;51.626;7.530;2023-02-12T11:48:46;19.42;;;10.60;;
13202;SDS011;6666;51.626;7.530;2023-02-12T11:51:17;14.82;;;8.98;;
13202;SDS011;6666;51.626;7.530;2023-02-12T11:53:52;16.92;;;8.43;;
13202;SDS011;6666;51.626;7.530;2023-02-12T11:56:23;18.83;;;9.88;;
13202;SDS011;6666;51.626;7.530;2023-02-12T11:58:51;17.23;;;9.07;;
13202;SDS011;6666;51.626;7.530;2023-02-12T12:01:23;17.35;;;9.07;;
13202;SDS011;6666;51.626;7.530;2023-02-12T12:03:56;14.90;;;8.80;;
13202;SDS011;6666;51.626;7.530;2023-02-12T12:06:33;15.45;;;8.82;;
13202;SDS011;6666;51.626;7.530;2023-02-12T12:09:09;16.27;;;9.70;;
13202;SDS011;6666;51.626;7.530;2023-02-12T12:11:45;16.15;;;9.50;;
13202;SDS011;6666;51.626;7.530;2023-02-12T12:14:21;13.55;;;8.70;;
13202;SDS011;6666;51.626;7.530;2023-02-12T12:16:54;18.30;;;9.70;;
13202;SDS011;6666;51.626;7.530;2023-02-12T12:19:46;14.52;;;8.80;;
13202;SDS011;6666;51.626;7.530;2023-02-12T12:22:39;14.13;;;8.43;;
13202;SDS011;6666;51.626;7.530;2023-02-12T12:25:19;17.02;;;8.75;;
13202;SDS011;6666;51.626;7.530;2023-02-12T12:27:56;15.93;;;8.38;;
13202;SDS011;6666;51.626;7.530;2023-02-12T12:30:39;13.85;;;7.88;;
13202;SDS011;6666;51.626;7.530;2023-02-12T12:33:19;12.53;;;8.27;;
13202;SDS011;6666;51.626;7.530;2023-02-12T12:35:57;15.50;;;8.23;;
13202;SDS011;6666;51.626;7.530;2023-02-12T12:38:39;15.23;;;8.07;;
13202;SDS011;6666;51.626;7.530;2023-02-12T12:41:20;15.45;;;8.60;;
13202;SDS011;6666;51.626;7.530;2023-02-12T12:43:57;13.93;;;7.70;;
13202;SDS011;6666;51.626;7.530;2023-02-12T12:46:33;14.35;;;7.78;;
13202;SDS011;6666;51.626;7.530;2023-02-12T12:49:33;13.85;;;8.55;;
13202;SDS011;6666;51.626;7.530;2023-02-12T12:55:23;17.70;;;7.70;;
13202;SDS011;6666;51.626;7.530;2023-02-12T12:58:13;14.70;;;8.00;;
13202;SDS011;6666;51.626;7.530;2023-02-12T13:00:59;13.40;;;7.43;;
13202;SDS011;6666;51.626;7.530;2023-02-12T13:06:50;10.80;;;6.72;;
13202;SDS011;6666;51.626;7.530;2023-02-12T13:09:35;12.23;;;7.30;;
13202;SDS011;6666;51.626;7.530;2023-02-12T13:12:46;11.98;;;6.97;;
13202;SDS011;6666;51.626;7.530;2023-02-12T13:15:38;14.27;;;6.70;;
13202;SDS011;6666;51.626;7.530;2023-02-12T13:18:12;12.10;;;6.50;;
13202;SDS011;6666;51.626;7.530;2023-02-12T13:20:50;12.75;;;5.78;;
13202;SDS011;6666;51.626;7.530;2023-02-12T13:23:27;12.60;;;6.70;;
13202;SDS011;6666;51.626;7.530;2023-02-12T13:26:03;9.85;;;5.93;;
13202;SDS011;6666;51.626;7.530;2023-02-12T13:28:39;11.70;;;5.90;;
13202;SDS011;6666;51.626;7.530;2023-02-12T13:31:13;10.15;;;5.30;;
13202;SDS011;6666;51.626;7.530;2023-02-12T13:33:59;12.27;;;5.10;;
13202;SDS011;6666;51.626;7.530;2023-02-12T13:36:30;11.30;;;5.88;;
13202;SDS011;6666;51.626;7.530;2023-02-12T13:39:03;10.30;;;5.40;;
13202;SDS011;6666;51.626;7.530;2023-02-12T13:41:37;9.38;;;5.38;;
13202;SDS011;6666;51.626;7.530;2023-02-12T13:44:09;11.35;;;5.97;;
13202;SDS011;6666;51.626;7.530;2023-02-12T13:46:48;8.15;;;5.00;;
13202;SDS011;6666;51.626;7.530;2023-02-12T13:49:24;9.10;;;5.00;;
13202;SDS011;6666;51.626;7.530;2023-02-12T13:52:04;11.13;;;6.40;;
13202;SDS011;6666;51.626;7.530;2023-02-12T13:54:39;12.18;;;6.10;;
13202;SDS011;6666;51.626;7.530;2023-02-12T13:57:19;16.65;;;6.00;;
13202;SDS011;6666;51.626;7.530;2023-02-12T13:59:49;11.77;;;5.85;;
13202;SDS011;6666;51.626;7.530;2023-02-12T14:05:28;11.85;;;5.55;;
13202;SDS011;6666;51.626;7.530;2023-02-12T14:07:59;9.45;;;5.22;;
13202;SDS011;6666;51.626;7.530;2023-02-12T14:10:32;13.05;;;6.10;;
13202;SDS011;6666;51.626;7.530;2023-02-12T14:13:10;11.60;;;6.27;;
13202;SDS011;6666;51.626;7.530;2023-02-12T14:15:43;11.13;;;5.68;;
13202;SDS011;6666;51.626;7.530;2023-02-12T14:27:22;18.80;;;7.82;;
13202;SDS011;6666;51.626;7.530;2023-02-12T14:30:02;11.38;;;6.40;;
13202;SDS011;6666;51.626;7.530;2023-02-12T14:32:56;12.68;;;7.00;;
13202;SDS011;6666;51.626;7.530;2023-02-12T14:35:47;10.47;;;6.10;;
13202;SDS011;6666;51.626;7.530;2023-02-12T14:41:24;10.75;;;6.60;;
13202;SDS011;6666;51.626;7.530;2023-02-12T14:47:11;10.60;;;6.00;;
13202;SDS011;6666;51.626;7.530;2023-02-12T14:49:58;14.00;;;6.63;;
13202;SDS011;6666;51.626;7.530;2023-02-12T14:52:31;11.00;;;6.82;;
13202;SDS011;6666;51.626;7.530;2023-02-12T14:55:07;12.87;;;6.60;;
13202;SDS011;6666;51.626;7.530;2023-02-12T14:57:49;11.75;;;6.35;;
13202;SDS011;6666;51.626;7.530;2023-02-12T15:00:22;14.38;;;6.50;;
13202;SDS011;6666;51.626;7.530;2023-02-12T15:02:57;16.15;;;6.40;;
13202;SDS011;6666;51.626;7.530;2023-02-12T15:05:30;11.27;;;6.00;;
13202;SDS011;6666;51.626;7.530;2023-02-12T15:08:06;14.90;;;7.47;;
13202;SDS011;6666;51.626;7.530;2023-02-12T15:10:41;12.43;;;7.13;;
13202;SDS011;6666;51.626;7.530;2023-02-12T15:13:17;17.45;;;7.78;;
13202;SDS011;6666;51.626;7.530;2023-02-12T15:15:55;11.70;;;6.50;;
13202;SDS011;6666;51.626;7.530;2023-02-12T15:18:37;13.65;;;7.10;;
13202;SDS011;6666;51.626;7.530;2023-02-12T15:21:13;14.45;;;7.65;;
13202;SDS011;6666;51.626;7.530;2023-02-12T15:23:56;14.25;;;7.00;;
13202;SDS011;6666;51.626;7.530;2023-02-12T15:26:28;13.90;;;7.70;;
13202;SDS011;6666;51.626;7.530;2023-02-12T15:28:58;14.27;;;7.82;;
13202;SDS011;6666;51.626;7.530;2023-02-12T15:31:28;13.00;;;7.07;;
13202;SDS011;6666;51.626;7.530;2023-02-12T15:33:59;13.30;;;7.35;;
13202;SDS011;6666;51.626;7.530;2023-02-12T15:36:30;14.27;;;8.10;;
13202;SDS011;6666;51.626;7.530;2023-02-12T15:39:01;13.77;;;8.20;;